Greater Binghamton,Edwin A Link field Binghamton US
ICAO: KBGM
IATA: BGM
Category: Medium
Scheduled Services: Yes

Elevation: 1636 ft
TransAlt. 18000 ft.

Airport Communications:
APP/DEP:118.6
ATIS:128.15
CLNC DEL:125.05
CTAF:119.3
GND:121.9
BUFFALO RDO:112.2
TWR:119.3
UNICOM:122.95

KBGM Zoom In..

If you have problems with the map follow the link
https://www.worldairports.se/pages/airport.php?
ICAO=KBGM

Runways:

(A) RW 10 length 5001 ft width 150 ft
---- / hdg 98

(B) RW 16 length 7304 ft width 150 ft
ILS 110.30 / hdg 160

(C) RW 28 length 5001 ft width 150 ft
---- / hdg 278

(D) RW 34 length 7304 ft width 150 ft
ILS 110.30 / hdg 340

Location; KBGM
Day. 20 / Time. 21.11 Zulu
* Altimeter: 30.19
* Temperature: -04° c. -24.8°f.
* Wind from: 140° Speed 14 kn with Gusts up to 17 kn.
Dewpoint: -06° c.
Visibility: 3/4 Statute Miles.
Clouds: Broken 600 ft.
Clouds: Overcast 2400 ft.
Conditions: Mist.

KBGM 202111Z 14014G17KT 3/4SM -FZRA BR BKN006 OVC024 M04/M06 A3019 RMK AO2 UPB01E09FZRAB09SNE01 P0002 T10441056


Wind From 140°
Speed 14 kn.

 
 
jpsmedia.com for Web Design worldairports.se 2019   terms of use